createdAt,value
2022-11-20T00:01:44.260Z,-3.38
2022-11-20T00:04:13.497Z,-3.45
2022-11-20T00:06:41.690Z,-3.44
2022-11-20T00:09:11.086Z,-3.39
2022-11-20T00:11:39.255Z,-3.34
2022-11-20T00:14:08.451Z,-3.30
2022-11-20T00:16:36.464Z,-3.26
2022-11-20T00:19:04.846Z,-3.21
2022-11-20T00:21:33.869Z,-3.18
2022-11-20T00:24:01.740Z,-3.16
2022-11-20T00:26:31.244Z,-3.17
2022-11-20T00:29:01.272Z,-3.17
2022-11-20T00:31:29.674Z,-3.16
2022-11-20T00:33:58.718Z,-3.15
2022-11-20T00:36:27.681Z,-3.18
2022-11-20T00:38:56.927Z,-3.25
2022-11-20T00:41:29.241Z,-3.31
2022-11-20T00:43:59.022Z,-3.35
2022-11-20T00:46:29.055Z,-3.40
2022-11-20T00:48:57.247Z,-3.44
2022-11-20T00:51:26.803Z,-3.47
2022-11-20T00:53:56.793Z,-3.47
2022-11-20T00:56:24.905Z,-3.47
2022-11-20T00:58:53.078Z,-3.46
2022-11-20T01:01:22.052Z,-3.44
2022-11-20T01:03:50.747Z,-3.39
2022-11-20T01:06:20.893Z,-3.35
2022-11-20T01:08:49.675Z,-3.33
2022-11-20T01:11:20.311Z,-3.31
2022-11-20T01:13:50.317Z,-3.31
2022-11-20T01:16:20.596Z,-3.31
2022-11-20T01:18:50.157Z,-3.28
2022-11-20T01:21:26.819Z,-3.28
2022-11-20T01:23:55.781Z,-3.32
2022-11-20T01:26:30.460Z,-3.37
2022-11-20T01:28:59.135Z,-3.45
2022-11-20T01:31:30.092Z,-3.54
2022-11-20T01:34:00.422Z,-3.56
2022-11-20T01:36:30.298Z,-3.59
2022-11-20T01:38:59.987Z,-3.59
2022-11-20T01:41:48.266Z,-3.60
2022-11-20T01:44:17.157Z,-3.60
2022-11-20T01:46:52.113Z,-3.57
2022-11-20T01:49:23.307Z,-3.52
2022-11-20T01:52:06.523Z,-3.49
2022-11-20T01:54:37.350Z,-3.49
2022-11-20T01:57:06.969Z,-3.50
2022-11-20T01:59:39.090Z,-3.48
2022-11-20T02:02:06.839Z,-3.45
2022-11-20T02:04:34.841Z,-3.44
2022-11-20T02:07:07.498Z,-3.42
2022-11-20T02:09:36.328Z,-3.45
2022-11-20T02:12:06.785Z,-3.51
2022-11-20T02:14:35.694Z,-3.63
2022-11-20T02:17:03.852Z,-3.76
2022-11-20T02:19:32.929Z,-3.88
2022-11-20T02:22:05.023Z,-4.00
2022-11-20T02:24:35.430Z,-4.13
2022-11-20T02:27:13.628Z,-4.21
2022-11-20T02:30:01.446Z,-4.27
2022-11-20T02:32:33.148Z,-4.27
2022-11-20T02:35:10.438Z,-4.26
2022-11-20T02:37:41.080Z,-4.24
2022-11-20T02:40:09.198Z,-4.24
2022-11-20T02:42:39.016Z,-4.25
2022-11-20T02:45:08.347Z,-4.26
2022-11-20T02:47:36.290Z,-4.25
2022-11-20T02:50:09.243Z,-4.25
2022-11-20T02:52:38.196Z,-4.25
2022-11-20T02:55:06.467Z,-4.23
2022-11-20T02:57:34.303Z,-4.22
2022-11-20T03:00:10.576Z,-4.19
2022-11-20T03:02:38.372Z,-4.20
2022-11-20T03:05:07.360Z,-4.23
2022-11-20T03:07:36.328Z,-4.26
2022-11-20T03:10:05.826Z,-4.25
2022-11-20T03:12:33.748Z,-4.24
2022-11-20T03:15:03.946Z,-4.22
2022-11-20T03:17:32.868Z,-4.21
2022-11-20T03:20:01.766Z,-4.20
2022-11-20T03:22:31.169Z,-4.23
2022-11-20T03:25:00.031Z,-4.28
2022-11-20T03:27:27.926Z,-4.29
2022-11-20T03:29:55.752Z,-4.30
2022-11-20T03:32:25.694Z,-4.30
2022-11-20T03:34:55.806Z,-4.25
2022-11-20T03:37:28.116Z,-4.20
2022-11-20T03:40:00.095Z,-4.20
2022-11-20T03:42:48.911Z,-4.25
2022-11-20T03:45:25.126Z,-4.30
2022-11-20T03:47:53.038Z,-4.34
2022-11-20T03:50:23.022Z,-4.39
2022-11-20T03:52:50.760Z,-4.41
2022-11-20T03:55:19.696Z,-4.44
2022-11-20T03:57:49.550Z,-4.49
2022-11-20T04:00:17.371Z,-4.56
2022-11-20T04:02:45.180Z,-4.65
2022-11-20T04:05:14.077Z,-4.70
2022-11-20T04:07:44.026Z,-4.72
2022-11-20T04:10:19.173Z,-4.70
2022-11-20T04:12:49.117Z,-4.64
2022-11-20T04:15:16.981Z,-4.57
2022-11-20T04:17:45.179Z,-4.49
2022-11-20T04:20:13.095Z,-4.40
2022-11-20T04:22:41.005Z,-4.31
2022-11-20T04:25:09.338Z,-4.24
2022-11-20T04:27:39.209Z,-4.17
2022-11-20T04:30:14.278Z,-4.11
2022-11-20T04:32:43.226Z,-4.04
2022-11-20T04:35:12.116Z,-3.99
2022-11-20T04:37:40.993Z,-3.96
2022-11-20T04:40:09.079Z,-3.94
2022-11-20T04:42:40.118Z,-3.91
2022-11-20T04:45:09.313Z,-3.86
2022-11-20T04:47:38.206Z,-3.84
2022-11-20T04:50:07.327Z,-3.84
2022-11-20T04:52:35.157Z,-3.82
2022-11-20T04:55:04.190Z,-3.80
2022-11-20T04:57:32.012Z,-3.82
2022-11-20T05:00:00.852Z,-3.87
2022-11-20T05:02:33.172Z,-3.93
2022-11-20T05:05:00.947Z,-4.03
2022-11-20T05:07:34.222Z,-4.14
2022-11-20T05:10:02.307Z,-4.25
2022-11-20T05:12:31.167Z,-4.30
2022-11-20T05:15:00.086Z,-4.31
2022-11-20T05:18:02.000Z,-4.30
2022-11-20T05:20:29.748Z,-4.24
2022-11-20T05:22:58.723Z,-4.17
2022-11-20T05:25:27.575Z,-4.09
2022-11-20T05:27:55.376Z,-4.02
2022-11-20T05:30:24.199Z,-3.97
2022-11-20T05:32:54.172Z,-3.94
2022-11-20T05:35:29.193Z,-3.93
2022-11-20T05:38:03.336Z,-3.92
2022-11-20T05:40:32.247Z,-3.93
2022-11-20T05:43:08.331Z,-3.95
2022-11-20T05:45:36.307Z,-3.94
2022-11-20T05:48:04.207Z,-3.93
2022-11-20T05:50:40.225Z,-3.92
2022-11-20T05:53:14.318Z,-3.92
2022-11-20T05:55:42.115Z,-3.91
2022-11-20T05:58:12.020Z,-3.91
2022-11-20T06:00:48.122Z,-3.92
2022-11-20T06:03:22.116Z,-3.93
2022-11-20T06:05:50.205Z,-3.93
2022-11-20T06:08:20.184Z,-3.93
2022-11-20T06:10:48.992Z,-3.92
2022-11-20T06:13:21.269Z,-3.92
2022-11-20T06:15:54.506Z,-3.92
2022-11-20T06:18:23.466Z,-3.94
2022-11-20T06:20:59.820Z,-3.97
2022-11-20T06:23:28.757Z,-3.98
2022-11-20T06:25:57.655Z,-3.96
2022-11-20T06:28:27.635Z,-3.93
2022-11-20T06:30:55.509Z,-3.89
2022-11-20T06:33:28.152Z,-3.87
2022-11-20T06:36:10.180Z,-3.87
2022-11-20T06:38:47.208Z,-3.89
2022-11-20T06:41:20.447Z,-3.92
2022-11-20T06:43:53.340Z,-3.98
2022-11-20T06:46:22.575Z,-4.04
2022-11-20T06:48:54.169Z,-4.05
2022-11-20T06:51:23.120Z,-4.03
2022-11-20T06:53:52.973Z,-4.01
2022-11-20T06:56:33.186Z,-3.96
2022-11-20T06:59:08.580Z,-3.86
2022-11-20T07:01:37.604Z,-3.74
2022-11-20T07:04:06.513Z,-3.64
2022-11-20T07:06:35.419Z,-3.54
2022-11-20T07:09:12.415Z,-3.47
2022-11-20T07:11:40.680Z,-3.38
2022-11-20T07:14:14.157Z,-3.29
2022-11-20T07:16:44.254Z,-3.19
2022-11-20T07:19:13.313Z,-3.11
2022-11-20T07:21:42.376Z,-3.00
2022-11-20T07:24:11.293Z,-2.89
2022-11-20T07:26:47.111Z,-2.82
2022-11-20T07:29:25.167Z,-2.73
2022-11-20T07:31:57.819Z,-2.62
2022-11-20T07:34:26.779Z,-2.37
2022-11-20T07:36:55.851Z,-1.76
2022-11-20T07:39:23.885Z,-0.91
2022-11-20T07:41:51.990Z,-0.08
2022-11-20T07:44:20.929Z,0.53
2022-11-20T07:46:49.844Z,0.94
2022-11-20T07:49:17.748Z,1.49
2022-11-20T07:51:47.005Z,2.18
2022-11-20T07:54:18.225Z,2.92
2022-11-20T07:56:55.160Z,3.57
2022-11-20T07:59:28.960Z,4.21
2022-11-20T08:01:57.267Z,4.85
2022-11-20T08:04:25.141Z,5.41
2022-11-20T08:06:53.661Z,5.64
2022-11-20T08:09:21.752Z,5.73
2022-11-20T08:12:08.671Z,5.85
2022-11-20T08:14:37.552Z,6.10
2022-11-20T08:17:09.162Z,6.33
2022-11-20T08:19:38.221Z,6.49
2022-11-20T08:22:06.190Z,6.57
2022-11-20T08:24:34.089Z,6.68
2022-11-20T08:27:02.134Z,6.94
2022-11-20T08:29:30.371Z,7.36
2022-11-20T08:32:03.205Z,7.80
2022-11-20T08:34:43.153Z,8.24
2022-11-20T08:37:11.246Z,8.59
2022-11-20T08:39:40.135Z,8.89
2022-11-20T08:42:09.569Z,9.20
2022-11-20T08:44:44.312Z,9.53
2022-11-20T08:47:13.186Z,9.86
2022-11-20T08:49:41.229Z,10.14
2022-11-20T08:52:10.262Z,10.35
2022-11-20T08:54:39.236Z,10.60
2022-11-20T08:57:08.194Z,10.93
2022-11-20T09:00:05.191Z,10.97
2022-11-20T09:02:39.168Z,10.30
2022-11-20T09:05:07.612Z,9.50
2022-11-20T09:07:35.674Z,8.73
2022-11-20T09:12:58.853Z,6.98
2022-11-20T09:15:27.780Z,6.35
2022-11-20T09:17:57.520Z,5.80
2022-11-20T09:20:31.017Z,5.35
2022-11-20T09:22:59.282Z,5.03
2022-11-20T09:25:34.505Z,4.83
2022-11-20T09:28:12.003Z,4.68
2022-11-20T09:30:46.248Z,4.59
2022-11-20T09:33:15.295Z,4.51
2022-11-20T09:35:45.138Z,4.31
2022-11-20T09:38:15.270Z,4.09
2022-11-20T09:41:10.721Z,3.88
2022-11-20T09:44:04.089Z,3.68
2022-11-20T09:46:51.447Z,3.61
2022-11-20T09:49:42.726Z,3.56
2022-11-20T09:52:32.098Z,3.53
2022-11-20T09:55:03.470Z,3.51
2022-11-20T09:57:41.724Z,3.50
2022-11-20T10:00:20.836Z,3.50
2022-11-20T10:03:04.325Z,3.62
2022-11-20T10:06:07.867Z,3.77
2022-11-20T10:08:45.899Z,4.02
2022-11-20T10:11:18.991Z,4.30
2022-11-20T10:14:10.403Z,4.42
2022-11-20T10:17:00.735Z,4.59
2022-11-20T10:19:39.444Z,4.76
2022-11-20T10:22:49.444Z,5.08
2022-11-20T10:25:23.229Z,5.43
2022-11-20T10:28:25.385Z,5.44
2022-11-20T10:31:03.506Z,5.33
2022-11-20T10:34:10.453Z,5.15
2022-11-20T10:36:48.126Z,4.96
2022-11-20T10:39:37.030Z,4.86
2022-11-20T10:42:09.812Z,4.80
2022-11-20T10:45:05.775Z,4.80
2022-11-20T10:47:37.503Z,4.78
2022-11-20T10:50:22.287Z,4.72
2022-11-20T10:53:12.495Z,4.65
2022-11-20T10:55:48.169Z,4.69
2022-11-20T10:58:31.433Z,4.85
2022-11-20T11:01:18.462Z,5.00
2022-11-20T11:03:48.095Z,5.09
2022-11-20T11:06:30.480Z,5.08
2022-11-20T11:09:01.602Z,5.04
2022-11-20T11:11:34.895Z,5.19
2022-11-20T11:14:15.493Z,5.68
2022-11-20T11:16:58.945Z,6.47
2022-11-20T11:19:27.231Z,6.91
2022-11-20T11:22:00.820Z,7.16
2022-11-20T11:24:46.500Z,7.06
2022-11-20T11:27:19.122Z,6.51
2022-11-20T11:29:48.504Z,6.10
2022-11-20T11:32:21.834Z,6.05
2022-11-20T11:35:18.193Z,6.41
2022-11-20T11:37:49.148Z,7.22
2022-11-20T11:40:25.205Z,7.73
2022-11-20T11:43:05.543Z,8.52
2022-11-20T11:45:33.611Z,9.41
2022-11-20T11:48:09.551Z,9.99
2022-11-20T11:50:37.623Z,10.23
2022-11-20T11:53:15.680Z,10.46
2022-11-20T11:55:53.793Z,10.57
2022-11-20T11:58:35.311Z,10.58
2022-11-20T12:01:16.524Z,10.80
2022-11-20T12:04:05.751Z,10.88
2022-11-20T12:06:40.630Z,10.40
2022-11-20T12:09:12.991Z,9.31
2022-11-20T12:12:06.848Z,8.23
2022-11-20T12:14:38.001Z,7.27
2022-11-20T12:17:14.563Z,6.61
2022-11-20T12:19:43.142Z,6.09
2022-11-20T12:22:48.312Z,5.77
2022-11-20T12:25:30.253Z,5.42
2022-11-20T12:28:10.490Z,5.23
2022-11-20T12:30:43.892Z,5.36
2022-11-20T12:33:39.498Z,5.42
2022-11-20T12:36:19.307Z,5.55
2022-11-20T12:39:18.760Z,6.04
2022-11-20T12:42:23.167Z,6.92
2022-11-20T12:45:12.420Z,8.05
2022-11-20T12:47:49.442Z,9.13
2022-11-20T12:50:29.292Z,9.94
2022-11-20T12:53:05.191Z,10.38
2022-11-20T12:55:42.160Z,10.68
2022-11-20T12:58:21.611Z,11.01
2022-11-20T13:01:48.419Z,11.25
2022-11-20T13:04:16.308Z,11.34
2022-11-20T13:06:45.690Z,11.33
2022-11-20T13:09:19.322Z,11.14
2022-11-20T13:12:18.089Z,11.03
2022-11-20T13:15:08.153Z,10.94
2022-11-20T13:17:56.510Z,10.79
2022-11-20T13:20:25.295Z,10.79
2022-11-20T13:23:04.172Z,10.74
2022-11-20T13:25:33.709Z,10.05
2022-11-20T13:28:06.143Z,9.43
2022-11-20T13:30:36.076Z,9.19
2022-11-20T13:33:06.814Z,9.34
2022-11-20T13:35:37.901Z,9.61
2022-11-20T13:38:05.704Z,9.29
2022-11-20T13:40:34.234Z,8.81
2022-11-20T13:43:17.488Z,8.19
2022-11-20T13:45:57.046Z,7.51
2022-11-20T13:48:30.373Z,6.65
2022-11-20T13:51:07.346Z,5.84
2022-11-20T13:53:56.653Z,5.19
2022-11-20T13:56:39.629Z,4.59
2022-11-20T13:59:10.820Z,4.12
2022-11-20T14:01:46.885Z,3.80
2022-11-20T14:04:21.912Z,3.61
2022-11-20T14:06:50.611Z,3.45
2022-11-20T14:09:36.810Z,3.32
2022-11-20T14:12:05.476Z,3.15
2022-11-20T14:14:34.913Z,3.09
2022-11-20T14:17:10.085Z,3.08
2022-11-20T14:19:47.654Z,3.09
2022-11-20T14:22:25.586Z,3.10
2022-11-20T14:25:16.387Z,3.08
2022-11-20T14:27:49.061Z,3.08
2022-11-20T14:30:20.305Z,3.06
2022-11-20T14:32:49.768Z,2.96
2022-11-20T14:35:45.345Z,2.88
2022-11-20T14:38:16.865Z,2.80
2022-11-20T14:40:44.623Z,2.78
2022-11-20T14:43:29.843Z,2.82
2022-11-20T14:46:06.761Z,2.92
2022-11-20T14:48:51.203Z,2.97
2022-11-20T14:51:47.484Z,2.97
2022-11-20T14:54:23.446Z,2.90
2022-11-20T14:57:00.796Z,2.80
2022-11-20T14:59:36.351Z,2.67
2022-11-20T15:02:10.026Z,2.62
2022-11-20T15:04:47.499Z,2.65
2022-11-20T15:07:30.864Z,2.68
2022-11-20T15:10:06.888Z,2.73
2022-11-20T15:12:35.958Z,2.75
2022-11-20T15:15:04.474Z,2.79
2022-11-20T15:17:39.150Z,2.83
2022-11-20T15:20:17.594Z,2.89
2022-11-20T15:22:45.775Z,2.94
2022-11-20T15:25:19.005Z,2.99
2022-11-20T15:27:52.268Z,3.02
2022-11-20T15:30:21.693Z,2.98
2022-11-20T15:32:49.928Z,2.89
2022-11-20T15:35:17.822Z,2.78
2022-11-20T15:37:45.793Z,2.67
2022-11-20T15:40:13.965Z,2.58
2022-11-20T15:43:01.888Z,2.51
2022-11-20T15:45:37.369Z,2.45
2022-11-20T15:48:06.382Z,2.40
2022-11-20T15:50:42.234Z,2.37
2022-11-20T15:53:11.472Z,2.40
2022-11-20T15:55:39.818Z,2.49
2022-11-20T15:58:07.647Z,2.56
2022-11-20T16:00:35.652Z,2.63
2022-11-20T16:03:03.888Z,2.68
2022-11-20T16:05:33.143Z,2.74
2022-11-20T16:08:04.959Z,2.83
2022-11-20T16:10:38.390Z,2.94
2022-11-20T16:13:36.034Z,3.01
2022-11-20T16:16:12.818Z,2.99
2022-11-20T16:18:41.682Z,2.89
2022-11-20T16:21:14.316Z,2.81
2022-11-20T16:23:43.477Z,2.79
2022-11-20T16:26:17.989Z,2.72
2022-11-20T16:28:45.984Z,2.66
2022-11-20T16:31:16.413Z,2.64
2022-11-20T16:33:44.739Z,2.65
2022-11-20T16:36:15.254Z,2.63
2022-11-20T16:38:44.348Z,2.59
2022-11-20T16:41:16.284Z,2.51
2022-11-20T16:43:48.121Z,2.43
2022-11-20T16:46:19.636Z,2.40
2022-11-20T16:48:59.805Z,2.39
2022-11-20T16:51:30.204Z,2.39
2022-11-20T16:54:02.533Z,2.32
2022-11-20T16:56:30.567Z,2.27
2022-11-20T16:59:00.189Z,2.22
2022-11-20T17:01:38.791Z,2.19
2022-11-20T17:04:07.487Z,2.15
2022-11-20T17:06:40.492Z,2.12
2022-11-20T17:09:11.380Z,2.08
2022-11-20T17:11:39.578Z,2.04
2022-11-20T17:14:07.677Z,1.98
2022-11-20T17:16:40.851Z,1.95
2022-11-20T17:19:11.631Z,1.91
2022-11-20T17:21:39.818Z,1.86
2022-11-20T17:24:12.872Z,1.82
2022-11-20T17:26:42.621Z,1.77
2022-11-20T17:29:16.753Z,1.74
2022-11-20T17:31:48.968Z,1.70
2022-11-20T17:34:18.234Z,1.67
2022-11-20T17:36:46.661Z,1.64
2022-11-20T17:39:17.503Z,1.62
2022-11-20T17:41:45.999Z,1.63
2022-11-20T17:44:17.178Z,1.65
2022-11-20T17:46:46.161Z,1.66
2022-11-20T17:49:16.953Z,1.65
2022-11-20T17:51:46.826Z,1.62
2022-11-20T17:54:15.760Z,1.57
2022-11-20T17:57:04.534Z,1.55
2022-11-20T17:59:32.498Z,1.52
2022-11-20T18:02:03.658Z,1.55
2022-11-20T18:04:38.579Z,1.59
2022-11-20T18:07:06.515Z,1.59
2022-11-20T18:09:34.501Z,1.62
2022-11-20T18:12:02.386Z,1.61
2022-11-20T18:14:33.095Z,1.61
2022-11-20T18:17:07.538Z,1.57
2022-11-20T18:19:51.544Z,1.54
2022-11-20T18:22:29.789Z,1.53
2022-11-20T18:24:58.588Z,1.54
2022-11-20T18:27:27.560Z,1.55
2022-11-20T18:29:56.616Z,1.54
2022-11-20T18:32:24.733Z,1.50
2022-11-20T18:34:53.339Z,1.43
2022-11-20T18:37:22.459Z,1.40
2022-11-20T18:39:51.788Z,1.37
2022-11-20T18:42:40.594Z,1.33
2022-11-20T18:45:08.643Z,1.28
2022-11-20T18:47:40.403Z,1.24
2022-11-20T18:50:09.872Z,1.20
2022-11-20T18:52:44.527Z,1.15
2022-11-20T18:55:15.182Z,1.15
2022-11-20T18:57:43.201Z,1.15
2022-11-20T19:00:13.165Z,1.17
2022-11-20T19:02:43.429Z,1.17
2022-11-20T19:05:13.564Z,1.16
2022-11-20T19:07:43.731Z,1.18
2022-11-20T19:10:11.913Z,1.20
2022-11-20T19:12:39.961Z,1.21
2022-11-20T19:15:09.497Z,1.24
2022-11-20T19:17:39.535Z,1.23
2022-11-20T19:20:08.386Z,1.20
2022-11-20T19:22:40.261Z,1.18
2022-11-20T19:25:09.265Z,1.16
2022-11-20T19:27:37.146Z,1.14
2022-11-20T19:30:06.594Z,1.10
2022-11-20T19:32:35.441Z,1.09
2022-11-20T19:35:13.427Z,1.08
2022-11-20T19:37:41.327Z,1.07
2022-11-20T19:40:10.206Z,1.10
2022-11-20T19:42:38.179Z,1.13
2022-11-20T19:45:14.300Z,1.16
2022-11-20T19:50:32.066Z,1.25
2022-11-20T19:53:00.146Z,1.30
2022-11-20T19:55:35.260Z,1.34
2022-11-20T19:58:04.407Z,1.35
2022-11-20T20:00:33.092Z,1.33
2022-11-20T20:03:11.256Z,1.33
2022-11-20T20:05:40.245Z,1.37
2022-11-20T20:08:08.225Z,1.39
2022-11-20T20:10:38.758Z,1.42
2022-11-20T20:13:07.287Z,1.44
2022-11-20T20:15:41.196Z,1.48
2022-11-20T20:18:10.208Z,1.53
2022-11-20T20:20:38.189Z,1.58
2022-11-20T20:23:12.530Z,1.65
2022-11-20T20:25:42.812Z,1.70
2022-11-20T20:28:11.844Z,1.72
2022-11-20T20:30:39.784Z,1.78
2022-11-20T20:33:08.931Z,1.85
2022-11-20T20:35:42.279Z,1.88
2022-11-20T20:38:10.313Z,1.90
2022-11-20T20:40:52.470Z,1.92
2022-11-20T20:43:20.607Z,1.93
2022-11-20T20:45:51.063Z,1.96
2022-11-20T20:48:22.502Z,2.01
2022-11-20T20:51:09.773Z,2.07
2022-11-20T20:53:38.623Z,2.13
2022-11-20T20:56:10.432Z,2.19
2022-11-20T20:58:38.391Z,2.28
2022-11-20T21:01:18.287Z,2.36
2022-11-20T21:03:47.358Z,2.45
2022-11-20T21:06:16.421Z,2.54
2022-11-20T21:08:44.741Z,2.64
2022-11-20T21:11:16.700Z,2.71
2022-11-20T21:13:47.836Z,2.75
2022-11-20T21:16:18.263Z,2.78
2022-11-20T21:18:46.662Z,2.81
2022-11-20T21:21:33.993Z,2.85
2022-11-20T21:24:02.916Z,2.89
2022-11-20T21:26:30.789Z,2.96
2022-11-20T21:28:58.588Z,3.00
2022-11-20T21:31:27.016Z,3.02
2022-11-20T21:33:56.549Z,2.99
2022-11-20T21:36:26.827Z,2.98
2022-11-20T21:38:55.453Z,3.00
2022-11-20T21:41:24.081Z,3.02
2022-11-20T21:45:48.926Z,3.03
2022-11-20T21:48:16.758Z,3.10
2022-11-20T21:50:44.670Z,3.20
2022-11-20T21:53:12.546Z,3.27
2022-11-20T21:55:40.303Z,3.30
2022-11-20T21:58:08.000Z,3.32
2022-11-20T22:00:36.015Z,3.35
2022-11-20T22:03:04.081Z,3.37
2022-11-20T22:05:31.826Z,3.40
2022-11-20T22:07:59.668Z,3.43
2022-11-20T22:10:28.177Z,3.46
2022-11-20T22:13:18.435Z,3.48
2022-11-20T22:16:00.253Z,3.50
2022-11-20T22:18:30.117Z,3.47
2022-11-20T22:21:02.837Z,3.49
2022-11-20T22:23:30.777Z,3.49
2022-11-20T22:26:05.757Z,3.51
2022-11-20T22:28:34.612Z,3.54
2022-11-20T22:31:03.747Z,3.58
2022-11-20T22:33:32.781Z,3.61
2022-11-20T22:36:04.960Z,3.63
2022-11-20T22:38:38.891Z,3.63
2022-11-20T22:41:08.638Z,3.59
2022-11-20T22:43:36.857Z,3.53
2022-11-20T22:46:08.278Z,3.48
2022-11-20T22:48:37.092Z,3.45
2022-11-20T22:51:07.718Z,3.46
2022-11-20T22:53:36.293Z,3.48
2022-11-20T22:56:08.547Z,3.52
2022-11-20T22:58:37.504Z,3.56
2022-11-20T23:01:10.302Z,3.59
2022-11-20T23:03:38.693Z,3.56
2022-11-20T23:06:07.653Z,3.49
2022-11-20T23:08:35.571Z,3.39
2022-11-20T23:11:13.041Z,3.32
2022-11-20T23:13:42.136Z,3.26
2022-11-20T23:16:14.261Z,3.20
2022-11-20T23:18:42.511Z,3.11
2022-11-20T23:21:11.462Z,3.06
2022-11-20T23:23:39.376Z,3.01
2022-11-20T23:26:12.664Z,2.97
2022-11-20T23:28:42.231Z,2.98
2022-11-20T23:31:12.220Z,3.03
2022-11-20T23:33:42.100Z,3.09
2022-11-20T23:36:10.808Z,3.15
2022-11-20T23:38:38.958Z,3.19
2022-11-20T23:41:07.684Z,3.18
2022-11-20T23:43:35.601Z,3.19
2022-11-20T23:46:04.810Z,3.20
2022-11-20T23:48:35.123Z,3.18
2022-11-20T23:51:06.857Z,3.18
2022-11-20T23:53:34.769Z,3.20
2022-11-20T23:56:05.195Z,3.20
2022-11-20T23:58:37.908Z,3.16
